sensor_id;sensor_type;location;lat;lon;timestamp;P1;durP1;ratioP1;P2;durP2;ratioP2
22571;SDS011;11452;53.368;14.658;2022-09-12T00:03:59;4.93;;;4.43;;
22571;SDS011;11452;53.368;14.658;2022-09-12T00:09:07;6.63;;;4.63;;
22571;SDS011;11452;53.368;14.658;2022-09-12T00:14:14;5.77;;;5.17;;
22571;SDS011;11452;53.368;14.658;2022-09-12T00:19:21;5.00;;;4.60;;
22571;SDS011;11452;53.368;14.658;2022-09-12T00:24:27;5.33;;;4.80;;
22571;SDS011;11452;53.368;14.658;2022-09-12T00:29:32;5.30;;;4.80;;
22571;SDS011;11452;53.368;14.658;2022-09-12T00:34:37;5.37;;;4.20;;
22571;SDS011;11452;53.368;14.658;2022-09-12T00:39:43;4.60;;;4.10;;
22571;SDS011;11452;53.368;14.658;2022-09-12T00:44:49;4.90;;;4.40;;
22571;SDS011;11452;53.368;14.658;2022-09-12T00:50:09;5.50;;;5.00;;
22571;SDS011;11452;53.368;14.658;2022-09-12T00:55:19;4.77;;;4.37;;
22571;SDS011;11452;53.368;14.658;2022-09-12T01:00:31;4.93;;;4.40;;
22571;SDS011;11452;53.368;14.658;2022-09-12T01:05:38;6.17;;;4.40;;
22571;SDS011;11452;53.368;14.658;2022-09-12T01:10:47;5.47;;;4.97;;
22571;SDS011;11452;53.368;14.658;2022-09-12T01:15:53;6.70;;;4.53;;
22571;SDS011;11452;53.368;14.658;2022-09-12T01:26:25;5.07;;;4.67;;
22571;SDS011;11452;53.368;14.658;2022-09-12T01:31:43;6.90;;;5.50;;
22571;SDS011;11452;53.368;14.658;2022-09-12T01:47:34;5.27;;;4.73;;
22571;SDS011;11452;53.368;14.658;2022-09-12T01:58:07;5.70;;;5.17;;
22571;SDS011;11452;53.368;14.658;2022-09-12T02:03:24;5.30;;;4.70;;
22571;SDS011;11452;53.368;14.658;2022-09-12T02:08:32;5.47;;;4.97;;
22571;SDS011;11452;53.368;14.658;2022-09-12T02:13:45;6.00;;;4.97;;
22571;SDS011;11452;53.368;14.658;2022-09-12T02:18:56;6.20;;;5.60;;
22571;SDS011;11452;53.368;14.658;2022-09-12T02:24:03;6.30;;;5.43;;
22571;SDS011;11452;53.368;14.658;2022-09-12T02:29:11;6.93;;;5.57;;
22571;SDS011;11452;53.368;14.658;2022-09-12T02:39:42;7.30;;;6.43;;
22571;SDS011;11452;53.368;14.658;2022-09-12T02:44:49;8.67;;;7.33;;
22571;SDS011;11452;53.368;14.658;2022-09-12T02:49:56;8.77;;;7.47;;
22571;SDS011;11452;53.368;14.658;2022-09-12T02:55:09;8.20;;;7.40;;
22571;SDS011;11452;53.368;14.658;2022-09-12T03:00:11;8.57;;;7.40;;
22571;SDS011;11452;53.368;14.658;2022-09-12T03:05:21;8.30;;;7.40;;
22571;SDS011;11452;53.368;14.658;2022-09-12T03:16:16;10.77;;;8.53;;
22571;SDS011;11452;53.368;14.658;2022-09-12T03:21:32;10.53;;;9.07;;
22571;SDS011;11452;53.368;14.658;2022-09-12T03:26:55;10.63;;;8.70;;
22571;SDS011;11452;53.368;14.658;2022-09-12T03:32:38;10.43;;;9.43;;
22571;SDS011;11452;53.368;14.658;2022-09-12T03:37:48;11.77;;;9.17;;
22571;SDS011;11452;53.368;14.658;2022-09-12T03:42:55;10.93;;;9.07;;
22571;SDS011;11452;53.368;14.658;2022-09-12T03:48:01;11.57;;;9.63;;
22571;SDS011;11452;53.368;14.658;2022-09-12T03:53:07;9.67;;;8.67;;
22571;SDS011;11452;53.368;14.658;2022-09-12T03:58:14;10.73;;;9.30;;
22571;SDS011;11452;53.368;14.658;2022-09-12T04:03:19;11.37;;;9.90;;
22571;SDS011;11452;53.368;14.658;2022-09-12T04:08:25;11.53;;;10.03;;
22571;SDS011;11452;53.368;14.658;2022-09-12T04:13:31;12.30;;;9.00;;
22571;SDS011;11452;53.368;14.658;2022-09-12T04:18:37;12.93;;;9.47;;
22571;SDS011;11452;53.368;14.658;2022-09-12T04:23:43;11.63;;;9.83;;
22571;SDS011;11452;53.368;14.658;2022-09-12T04:28:51;13.03;;;10.03;;
22571;SDS011;11452;53.368;14.658;2022-09-12T04:33:59;12.80;;;10.30;;
22571;SDS011;11452;53.368;14.658;2022-09-12T04:39:04;15.23;;;10.60;;
22571;SDS011;11452;53.368;14.658;2022-09-12T04:44:12;12.67;;;9.30;;
22571;SDS011;11452;53.368;14.658;2022-09-12T04:49:18;12.13;;;10.10;;
22571;SDS011;11452;53.368;14.658;2022-09-12T04:54:24;10.93;;;9.20;;
22571;SDS011;11452;53.368;14.658;2022-09-12T04:59:29;12.07;;;9.27;;
22571;SDS011;11452;53.368;14.658;2022-09-12T05:04:35;9.80;;;8.77;;
22571;SDS011;11452;53.368;14.658;2022-09-12T05:09:41;11.57;;;9.23;;
22571;SDS011;11452;53.368;14.658;2022-09-12T05:14:46;11.73;;;9.17;;
22571;SDS011;11452;53.368;14.658;2022-09-12T05:19:51;12.23;;;9.83;;
22571;SDS011;11452;53.368;14.658;2022-09-12T05:24:59;12.43;;;10.27;;
22571;SDS011;11452;53.368;14.658;2022-09-12T05:30:05;13.00;;;10.20;;
22571;SDS011;11452;53.368;14.658;2022-09-12T05:35:11;10.73;;;9.03;;
22571;SDS011;11452;53.368;14.658;2022-09-12T05:40:17;9.73;;;8.37;;
22571;SDS011;11452;53.368;14.658;2022-09-12T05:45:24;9.80;;;8.53;;
22571;SDS011;11452;53.368;14.658;2022-09-12T05:50:30;10.00;;;8.10;;
22571;SDS011;11452;53.368;14.658;2022-09-12T05:55:35;8.40;;;7.27;;
22571;SDS011;11452;53.368;14.658;2022-09-12T06:00:40;7.33;;;6.63;;
22571;SDS011;11452;53.368;14.658;2022-09-12T06:05:46;7.80;;;7.03;;
22571;SDS011;11452;53.368;14.658;2022-09-12T06:10:57;7.40;;;6.63;;
22571;SDS011;11452;53.368;14.658;2022-09-12T06:16:09;8.43;;;7.47;;
22571;SDS011;11452;53.368;14.658;2022-09-12T06:21:16;9.00;;;7.47;;
22571;SDS011;11452;53.368;14.658;2022-09-12T06:26:23;9.60;;;7.53;;
22571;SDS011;11452;53.368;14.658;2022-09-12T06:31:30;8.50;;;7.70;;
22571;SDS011;11452;53.368;14.658;2022-09-12T06:36:38;9.27;;;7.77;;
22571;SDS011;11452;53.368;14.658;2022-09-12T06:41:45;9.60;;;7.67;;
22571;SDS011;11452;53.368;14.658;2022-09-12T06:46:52;9.47;;;8.10;;
22571;SDS011;11452;53.368;14.658;2022-09-12T06:51:57;9.10;;;7.57;;
22571;SDS011;11452;53.368;14.658;2022-09-12T06:57:03;9.27;;;7.20;;
22571;SDS011;11452;53.368;14.658;2022-09-12T07:02:09;6.83;;;6.13;;
22571;SDS011;11452;53.368;14.658;2022-09-12T07:07:15;6.80;;;6.10;;
22571;SDS011;11452;53.368;14.658;2022-09-12T07:12:21;7.70;;;6.03;;
22571;SDS011;11452;53.368;14.658;2022-09-12T07:17:27;6.90;;;6.20;;
22571;SDS011;11452;53.368;14.658;2022-09-12T07:22:33;5.60;;;5.03;;
22571;SDS011;11452;53.368;14.658;2022-09-12T07:27:38;7.43;;;5.07;;
22571;SDS011;11452;53.368;14.658;2022-09-12T07:32:44;4.83;;;4.30;;
22571;SDS011;11452;53.368;14.658;2022-09-12T07:37:49;8.83;;;4.30;;
22571;SDS011;11452;53.368;14.658;2022-09-12T07:42:54;6.13;;;3.63;;
22571;SDS011;11452;53.368;14.658;2022-09-12T07:48:00;4.63;;;4.23;;
22571;SDS011;11452;53.368;14.658;2022-09-12T07:53:06;3.70;;;3.40;;
22571;SDS011;11452;53.368;14.658;2022-09-12T07:58:12;3.40;;;3.10;;
22571;SDS011;11452;53.368;14.658;2022-09-12T08:03:18;2.60;;;2.33;;
22571;SDS011;11452;53.368;14.658;2022-09-12T08:08:23;2.70;;;2.50;;
22571;SDS011;11452;53.368;14.658;2022-09-12T08:13:29;3.90;;;3.30;;
22571;SDS011;11452;53.368;14.658;2022-09-12T08:18:35;2.57;;;2.37;;
22571;SDS011;11452;53.368;14.658;2022-09-12T08:23:40;2.40;;;2.20;;
22571;SDS011;11452;53.368;14.658;2022-09-12T08:28:46;3.40;;;3.10;;
22571;SDS011;11452;53.368;14.658;2022-09-12T08:33:57;2.80;;;2.60;;
22571;SDS011;11452;53.368;14.658;2022-09-12T08:39:05;3.83;;;2.90;;
22571;SDS011;11452;53.368;14.658;2022-09-12T08:49:28;2.90;;;1.90;;
22571;SDS011;11452;53.368;14.658;2022-09-12T08:54:39;3.00;;;2.27;;
22571;SDS011;11452;53.368;14.658;2022-09-12T08:59:48;2.13;;;2.03;;
22571;SDS011;11452;53.368;14.658;2022-09-12T09:04:58;3.40;;;1.80;;
22571;SDS011;11452;53.368;14.658;2022-09-12T09:10:23;1.63;;;1.37;;
22571;SDS011;11452;53.368;14.658;2022-09-12T09:20:45;3.43;;;2.07;;
22571;SDS011;11452;53.368;14.658;2022-09-12T09:31:27;2.47;;;1.80;;
22571;SDS011;11452;53.368;14.658;2022-09-12T09:47:13;2.83;;;1.90;;
22571;SDS011;11452;53.368;14.658;2022-09-12T09:52:23;1.87;;;1.50;;
22571;SDS011;11452;53.368;14.658;2022-09-12T10:02:56;1.53;;;1.43;;
22571;SDS011;11452;53.368;14.658;2022-09-12T10:08:10;1.60;;;1.50;;
22571;SDS011;11452;53.368;14.658;2022-09-12T10:13:34;1.90;;;1.40;;
22571;SDS011;11452;53.368;14.658;2022-09-12T10:18:58;1.97;;;1.70;;
22571;SDS011;11452;53.368;14.658;2022-09-12T10:24:12;1.90;;;1.80;;
22571;SDS011;11452;53.368;14.658;2022-09-12T10:29:32;2.10;;;2.00;;
22571;SDS011;11452;53.368;14.658;2022-09-12T10:34:41;2.93;;;2.00;;
22571;SDS011;11452;53.368;14.658;2022-09-12T10:39:49;2.00;;;1.80;;
22571;SDS011;11452;53.368;14.658;2022-09-12T10:44:57;1.63;;;1.53;;
22571;SDS011;11452;53.368;14.658;2022-09-12T10:50:23;2.23;;;1.60;;
22571;SDS011;11452;53.368;14.658;2022-09-12T10:55:28;1.60;;;1.50;;
22571;SDS011;11452;53.368;14.658;2022-09-12T11:00:36;2.40;;;2.20;;
22571;SDS011;11452;53.368;14.658;2022-09-12T11:11:15;1.60;;;1.50;;
22571;SDS011;11452;53.368;14.658;2022-09-12T11:21:45;4.20;;;1.40;;
22571;SDS011;11452;53.368;14.658;2022-09-12T11:27:00;1.80;;;1.67;;
22571;SDS011;11452;53.368;14.658;2022-09-12T11:32:09;1.33;;;1.27;;
22571;SDS011;11452;53.368;14.658;2022-09-12T11:43:22;1.87;;;1.77;;
22571;SDS011;11452;53.368;14.658;2022-09-12T11:53:57;2.43;;;2.13;;
22571;SDS011;11452;53.368;14.658;2022-09-12T11:59:04;3.13;;;2.00;;
22571;SDS011;11452;53.368;14.658;2022-09-12T12:04:12;2.37;;;2.27;;
22571;SDS011;11452;53.368;14.658;2022-09-12T12:09:20;3.87;;;2.70;;
22571;SDS011;11452;53.368;14.658;2022-09-12T12:14:37;3.07;;;2.20;;
22571;SDS011;11452;53.368;14.658;2022-09-12T12:19:55;2.50;;;2.30;;
22571;SDS011;11452;53.368;14.658;2022-09-12T12:35:38;2.93;;;2.00;;
22571;SDS011;11452;53.368;14.658;2022-09-12T12:40:44;2.20;;;2.00;;
22571;SDS011;11452;53.368;14.658;2022-09-12T12:45:57;1.97;;;1.87;;
22571;SDS011;11452;53.368;14.658;2022-09-12T12:56:32;1.60;;;1.50;;
22571;SDS011;11452;53.368;14.658;2022-09-12T13:01:52;1.90;;;1.70;;
22571;SDS011;11452;53.368;14.658;2022-09-12T13:06:57;1.60;;;1.50;;
22571;SDS011;11452;53.368;14.658;2022-09-12T13:12:07;1.47;;;1.37;;
22571;SDS011;11452;53.368;14.658;2022-09-12T13:17:22;2.67;;;1.87;;
22571;SDS011;11452;53.368;14.658;2022-09-12T13:22:39;2.60;;;1.50;;
22571;SDS011;11452;53.368;14.658;2022-09-12T13:28:03;1.80;;;1.70;;
22571;SDS011;11452;53.368;14.658;2022-09-12T13:33:17;2.13;;;1.70;;
22571;SDS011;11452;53.368;14.658;2022-09-12T13:43:41;1.80;;;1.70;;
22571;SDS011;11452;53.368;14.658;2022-09-12T13:48:52;1.40;;;1.30;;
22571;SDS011;11452;53.368;14.658;2022-09-12T13:53:58;1.67;;;1.50;;
22571;SDS011;11452;53.368;14.658;2022-09-12T13:59:08;2.03;;;1.20;;
22571;SDS011;11452;53.368;14.658;2022-09-12T14:04:25;1.37;;;1.27;;
22571;SDS011;11452;53.368;14.658;2022-09-12T14:09:54;1.00;;;1.00;;
22571;SDS011;11452;53.368;14.658;2022-09-12T14:15:02;1.00;;;1.00;;
22571;SDS011;11452;53.368;14.658;2022-09-12T14:20:11;2.13;;;1.40;;
22571;SDS011;11452;53.368;14.658;2022-09-12T14:25:17;1.33;;;1.17;;
22571;SDS011;11452;53.368;14.658;2022-09-12T14:30:25;4.37;;;1.13;;
22571;SDS011;11452;53.368;14.658;2022-09-12T14:35:33;1.90;;;1.10;;
22571;SDS011;11452;53.368;14.658;2022-09-12T14:40:44;1.60;;;1.50;;
22571;SDS011;11452;53.368;14.658;2022-09-12T14:45:58;2.50;;;1.70;;
22571;SDS011;11452;53.368;14.658;2022-09-12T14:51:06;1.63;;;1.53;;
22571;SDS011;11452;53.368;14.658;2022-09-12T14:56:11;1.63;;;1.53;;
22571;SDS011;11452;53.368;14.658;2022-09-12T15:06:27;1.73;;;1.63;;
22571;SDS011;11452;53.368;14.658;2022-09-12T15:11:34;1.90;;;1.80;;
22571;SDS011;11452;53.368;14.658;2022-09-12T15:16:39;1.70;;;1.60;;
22571;SDS011;11452;53.368;14.658;2022-09-12T15:21:45;1.67;;;1.57;;
22571;SDS011;11452;53.368;14.658;2022-09-12T15:26:51;1.93;;;1.40;;
22571;SDS011;11452;53.368;14.658;2022-09-12T15:31:56;2.20;;;2.00;;
22571;SDS011;11452;53.368;14.658;2022-09-12T15:37:04;4.60;;;1.70;;
22571;SDS011;11452;53.368;14.658;2022-09-12T15:42:10;2.30;;;1.77;;
22571;SDS011;11452;53.368;14.658;2022-09-12T15:47:18;2.63;;;1.20;;
22571;SDS011;11452;53.368;14.658;2022-09-12T15:52:24;2.10;;;2.00;;
22571;SDS011;11452;53.368;14.658;2022-09-12T15:57:29;1.60;;;1.50;;
22571;SDS011;11452;53.368;14.658;2022-09-12T16:02:35;1.90;;;1.80;;
22571;SDS011;11452;53.368;14.658;2022-09-12T16:07:41;3.53;;;1.77;;
22571;SDS011;11452;53.368;14.658;2022-09-12T16:12:48;4.27;;;2.20;;
22571;SDS011;11452;53.368;14.658;2022-09-12T16:17:54;2.70;;;2.00;;
22571;SDS011;11452;53.368;14.658;2022-09-12T16:22:59;3.93;;;2.83;;
22571;SDS011;11452;53.368;14.658;2022-09-12T16:28:05;2.03;;;1.93;;
22571;SDS011;11452;53.368;14.658;2022-09-12T16:33:11;2.40;;;2.20;;
22571;SDS011;11452;53.368;14.658;2022-09-12T16:38:16;2.13;;;1.93;;
22571;SDS011;11452;53.368;14.658;2022-09-12T16:43:22;1.80;;;1.70;;
22571;SDS011;11452;53.368;14.658;2022-09-12T16:48:28;3.47;;;2.23;;
22571;SDS011;11452;53.368;14.658;2022-09-12T16:53:35;2.60;;;2.40;;
22571;SDS011;11452;53.368;14.658;2022-09-12T16:58:42;3.00;;;2.10;;
22571;SDS011;11452;53.368;14.658;2022-09-12T17:03:51;2.10;;;2.00;;
22571;SDS011;11452;53.368;14.658;2022-09-12T17:08:59;3.30;;;2.40;;
22571;SDS011;11452;53.368;14.658;2022-09-12T17:14:06;4.50;;;2.40;;
22571;SDS011;11452;53.368;14.658;2022-09-12T17:19:14;2.23;;;2.13;;
22571;SDS011;11452;53.368;14.658;2022-09-12T17:24:22;2.97;;;2.10;;
22571;SDS011;11452;53.368;14.658;2022-09-12T17:29:28;2.87;;;2.40;;
22571;SDS011;11452;53.368;14.658;2022-09-12T17:34:36;2.10;;;1.90;;
22571;SDS011;11452;53.368;14.658;2022-09-12T17:39:44;3.23;;;2.00;;
22571;SDS011;11452;53.368;14.658;2022-09-12T17:44:51;2.60;;;2.10;;
22571;SDS011;11452;53.368;14.658;2022-09-12T17:49:59;2.70;;;2.50;;
22571;SDS011;11452;53.368;14.658;2022-09-12T17:55:07;2.70;;;2.23;;
22571;SDS011;11452;53.368;14.658;2022-09-12T18:00:15;2.53;;;2.33;;
22571;SDS011;11452;53.368;14.658;2022-09-12T18:05:23;4.33;;;1.97;;
22571;SDS011;11452;53.368;14.658;2022-09-12T18:10:29;3.23;;;2.20;;
22571;SDS011;11452;53.368;14.658;2022-09-12T18:15:35;3.77;;;2.47;;
22571;SDS011;11452;53.368;14.658;2022-09-12T18:20:48;2.93;;;2.67;;
22571;SDS011;11452;53.368;14.658;2022-09-12T18:25:57;3.30;;;2.83;;
22571;SDS011;11452;53.368;14.658;2022-09-12T18:31:08;3.90;;;2.73;;
22571;SDS011;11452;53.368;14.658;2022-09-12T18:36:16;4.63;;;2.20;;
22571;SDS011;11452;53.368;14.658;2022-09-12T18:41:23;3.20;;;2.23;;
22571;SDS011;11452;53.368;14.658;2022-09-12T18:46:29;2.57;;;2.37;;
22571;SDS011;11452;53.368;14.658;2022-09-12T18:51:36;2.57;;;2.37;;
22571;SDS011;11452;53.368;14.658;2022-09-12T18:56:43;4.97;;;2.70;;
22571;SDS011;11452;53.368;14.658;2022-09-12T19:01:49;3.17;;;2.87;;
22571;SDS011;11452;53.368;14.658;2022-09-12T19:06:55;2.77;;;2.57;;
22571;SDS011;11452;53.368;14.658;2022-09-12T19:12:01;3.53;;;2.70;;
22571;SDS011;11452;53.368;14.658;2022-09-12T19:17:07;2.30;;;2.10;;
22571;SDS011;11452;53.368;14.658;2022-09-12T19:22:13;3.53;;;2.63;;
22571;SDS011;11452;53.368;14.658;2022-09-12T19:27:18;2.80;;;2.60;;
22571;SDS011;11452;53.368;14.658;2022-09-12T19:32:24;2.70;;;2.50;;
22571;SDS011;11452;53.368;14.658;2022-09-12T19:37:29;2.63;;;2.17;;
22571;SDS011;11452;53.368;14.658;2022-09-12T19:42:35;2.53;;;2.33;;
22571;SDS011;11452;53.368;14.658;2022-09-12T19:47:40;2.83;;;2.07;;
22571;SDS011;11452;53.368;14.658;2022-09-12T19:52:46;2.63;;;2.43;;
22571;SDS011;11452;53.368;14.658;2022-09-12T19:57:52;4.10;;;2.50;;
22571;SDS011;11452;53.368;14.658;2022-09-12T20:02:57;3.57;;;2.87;;
22571;SDS011;11452;53.368;14.658;2022-09-12T20:08:04;5.50;;;2.40;;
22571;SDS011;11452;53.368;14.658;2022-09-12T20:13:09;3.57;;;2.90;;
22571;SDS011;11452;53.368;14.658;2022-09-12T20:18:15;4.47;;;2.87;;
22571;SDS011;11452;53.368;14.658;2022-09-12T20:23:22;3.70;;;2.60;;
22571;SDS011;11452;53.368;14.658;2022-09-12T20:28:28;4.13;;;2.87;;
22571;SDS011;11452;53.368;14.658;2022-09-12T20:33:33;3.00;;;2.80;;
22571;SDS011;11452;53.368;14.658;2022-09-12T20:38:39;3.80;;;2.93;;
22571;SDS011;11452;53.368;14.658;2022-09-12T20:43:50;3.30;;;3.00;;
22571;SDS011;11452;53.368;14.658;2022-09-12T20:48:57;3.73;;;3.43;;
22571;SDS011;11452;53.368;14.658;2022-09-12T20:54:03;4.53;;;3.60;;
22571;SDS011;11452;53.368;14.658;2022-09-12T20:59:10;5.70;;;3.47;;
22571;SDS011;11452;53.368;14.658;2022-09-12T21:04:16;3.70;;;3.37;;
22571;SDS011;11452;53.368;14.658;2022-09-12T21:09:22;4.10;;;3.77;;
22571;SDS011;11452;53.368;14.658;2022-09-12T21:14:27;3.57;;;3.27;;
22571;SDS011;11452;53.368;14.658;2022-09-12T21:19:33;3.10;;;2.90;;
22571;SDS011;11452;53.368;14.658;2022-09-12T21:24:38;3.90;;;3.23;;
22571;SDS011;11452;53.368;14.658;2022-09-12T21:29:44;3.83;;;2.77;;
22571;SDS011;11452;53.368;14.658;2022-09-12T21:34:49;3.30;;;3.00;;
22571;SDS011;11452;53.368;14.658;2022-09-12T21:39:55;3.90;;;2.63;;
22571;SDS011;11452;53.368;14.658;2022-09-12T21:45:01;3.40;;;2.43;;
22571;SDS011;11452;53.368;14.658;2022-09-12T21:50:08;2.37;;;2.20;;
22571;SDS011;11452;53.368;14.658;2022-09-12T21:55:14;2.50;;;2.30;;
22571;SDS011;11452;53.368;14.658;2022-09-12T22:00:20;2.87;;;2.60;;
22571;SDS011;11452;53.368;14.658;2022-09-12T22:05:26;2.73;;;2.47;;
22571;SDS011;11452;53.368;14.658;2022-09-12T22:10:33;2.60;;;2.40;;
22571;SDS011;11452;53.368;14.658;2022-09-12T22:15:48;4.70;;;2.30;;
22571;SDS011;11452;53.368;14.658;2022-09-12T22:20:58;2.70;;;2.50;;
22571;SDS011;11452;53.368;14.658;2022-09-12T22:26:08;3.00;;;2.70;;
22571;SDS011;11452;53.368;14.658;2022-09-12T22:31:15;2.80;;;2.50;;
22571;SDS011;11452;53.368;14.658;2022-09-12T22:36:22;2.83;;;2.63;;
22571;SDS011;11452;53.368;14.658;2022-09-12T22:41:29;2.67;;;2.47;;
22571;SDS011;11452;53.368;14.658;2022-09-12T22:46:34;2.90;;;2.70;;
22571;SDS011;11452;53.368;14.658;2022-09-12T22:51:41;3.30;;;3.00;;
22571;SDS011;11452;53.368;14.658;2022-09-12T22:56:46;2.97;;;2.67;;
22571;SDS011;11452;53.368;14.658;2022-09-12T23:01:52;2.90;;;2.70;;
22571;SDS011;11452;53.368;14.658;2022-09-12T23:06:58;3.53;;;3.07;;
22571;SDS011;11452;53.368;14.658;2022-09-12T23:12:03;3.87;;;3.47;;
22571;SDS011;11452;53.368;14.658;2022-09-12T23:17:09;3.50;;;3.20;;
22571;SDS011;11452;53.368;14.658;2022-09-12T23:22:14;3.10;;;2.90;;
22571;SDS011;11452;53.368;14.658;2022-09-12T23:27:20;3.43;;;3.13;;
22571;SDS011;11452;53.368;14.658;2022-09-12T23:32:25;3.30;;;3.00;;
22571;SDS011;11452;53.368;14.658;2022-09-12T23:37:31;4.20;;;2.90;;
22571;SDS011;11452;53.368;14.658;2022-09-12T23:42:36;3.50;;;3.20;;
22571;SDS011;11452;53.368;14.658;2022-09-12T23:47:42;3.27;;;2.97;;
22571;SDS011;11452;53.368;14.658;2022-09-12T23:52:47;4.27;;;3.70;;
22571;SDS011;11452;53.368;14.658;2022-09-12T23:57:52;3.10;;;2.80;;
